Time;durP1;ratioP1;P1;durP2;ratioP2;P2;SDS_P1;SDS_P2;PMS_P1;PMS_P2;Temp;Humidity;BMP_temperature;BMP_pressure;BME280_temperature;BME280_humidity;BME280_pressure;Samples;Min_cycle;Max_cycle;Signal;HPM_P1;HPM_P2
2022/03/05 00:01:59;;;;;;;18.57;11.10;;;0.80;66.40;;;;;;6282398;22;20012;-85
2022/03/05 00:04:25;;;;;;;17.63;10.77;;;0.80;66.60;;;;;;6308867;22;20023;-84
2022/03/05 00:06:51;;;;;;;17.03;10.30;;;0.80;66.80;;;;;;6309933;22;20012;-84
2022/03/05 00:09:20;;;;;;;16.90;10.97;;;0.80;66.50;;;;;;6309726;22;20432;-86
2022/03/05 00:11:45;;;;;;;15.77;10.47;;;0.90;66.60;;;;;;6309016;22;20015;-85
2022/03/05 00:14:12;;;;;;;14.90;10.07;;;0.80;66.70;;;;;;6281470;22;20316;-85
2022/03/05 00:16:38;;;;;;;17.43;10.93;;;0.80;66.60;;;;;;6281902;22;20022;-85
2022/03/05 00:19:04;;;;;;;17.93;11.40;;;0.80;66.50;;;;;;6309739;22;20078;-85
2022/03/05 00:21:30;;;;;;;16.73;10.63;;;0.80;66.50;;;;;;6282209;22;20061;-85
2022/03/05 00:23:55;;;;;;;20.40;11.93;;;0.80;66.60;;;;;;6309568;22;20439;-84
2022/03/05 00:26:21;;;;;;;17.83;11.03;;;0.80;66.50;;;;;;6309226;22;20103;-84
2022/03/05 00:28:47;;;;;;;18.53;11.63;;;0.80;66.50;;;;;;6309455;22;20490;-85
2022/03/05 00:31:13;;;;;;;18.40;11.23;;;0.80;66.50;;;;;;6309918;22;20043;-85
2022/03/05 00:33:38;;;;;;;20.13;10.93;;;0.80;66.60;;;;;;6309603;22;20027;-84
2022/03/05 00:36:04;;;;;;;18.27;10.63;;;0.70;66.70;;;;;;6308889;22;20015;-84
2022/03/05 00:38:30;;;;;;;19.13;11.20;;;0.70;66.60;;;;;;6308639;22;20015;-83
2022/03/05 00:40:55;;;;;;;18.73;10.70;;;0.70;67.00;;;;;;6281772;22;20333;-83
2022/03/05 00:43:21;;;;;;;15.87;10.33;;;0.70;66.70;;;;;;6309316;22;20015;-84
2022/03/05 00:45:47;;;;;;;17.80;11.23;;;0.80;66.70;;;;;;6280658;22;20057;-84
2022/03/05 00:48:12;;;;;;;21.70;11.30;;;0.70;66.60;;;;;;6308672;22;20008;-84
2022/03/05 00:50:39;;;;;;;18.20;11.00;;;0.70;66.60;;;;;;6309440;22;20019;-84
2022/03/05 00:53:05;;;;;;;17.83;10.97;;;0.70;66.50;;;;;;6308967;22;20435;-84
2022/03/05 00:55:31;;;;;;;16.53;10.97;;;0.70;66.60;;;;;;6308978;22;20038;-84
2022/03/05 00:57:57;;;;;;;19.17;11.47;;;0.70;66.70;;;;;;6308309;22;20324;-83
2022/03/05 01:00:23;;;;;;;15.63;9.77;;;0.60;66.80;;;;;;6308929;22;20042;-84
2022/03/05 01:02:48;;;;;;;18.20;11.07;;;0.60;66.70;;;;;;6309248;22;20011;-84
2022/03/05 01:05:14;;;;;;;17.03;10.80;;;0.60;66.80;;;;;;6308814;22;20011;-84
2022/03/05 01:07:40;;;;;;;17.90;10.67;;;0.60;66.70;;;;;;6309155;22;20008;-84
2022/03/05 01:10:07;;;;;;;18.83;10.30;;;0.60;66.70;;;;;;6281549;22;20051;-84
2022/03/05 01:12:33;;;;;;;20.17;11.40;;;0.60;66.90;;;;;;6309194;22;20026;-84
2022/03/05 01:14:59;;;;;;;15.57;9.70;;;0.60;66.80;;;;;;6309271;22;20086;-85
2022/03/05 01:17:25;;;;;;;19.33;10.40;;;0.60;66.90;;;;;;6308356;22;20061;-84
2022/03/05 01:19:50;;;;;;;18.47;10.50;;;0.60;66.80;;;;;;6308767;22;20018;-84
2022/03/05 01:22:16;;;;;;;16.43;10.10;;;0.50;66.80;;;;;;6308815;22;20038;-84
2022/03/05 01:24:41;;;;;;;17.67;9.90;;;0.50;66.80;;;;;;6308868;22;20019;-83
2022/03/05 01:27:07;;;;;;;17.30;10.80;;;0.50;67.00;;;;;;6308834;22;20026;-84
2022/03/05 01:29:33;;;;;;;19.37;11.00;;;0.50;66.90;;;;;;6280929;22;20019;-84
2022/03/05 01:31:58;;;;;;;16.57;10.37;;;0.50;66.90;;;;;;6281225;22;20023;-84
2022/03/05 01:34:24;;;;;;;19.00;10.93;;;0.50;66.80;;;;;;6280917;22;20059;-84
2022/03/05 01:36:50;;;;;;;16.83;10.57;;;0.50;66.80;;;;;;6308786;22;20090;-84
2022/03/05 01:39:16;;;;;;;20.50;10.87;;;0.50;67.00;;;;;;6281048;22;20499;-84
2022/03/05 01:41:45;;;;;;;17.87;11.27;;;0.50;67.20;;;;;;6280877;22;20431;-84
2022/03/05 01:44:11;;;;;;;16.47;10.07;;;0.50;66.90;;;;;;6308860;22;20019;-83
2022/03/05 01:46:39;;;;;;;17.20;10.90;;;0.40;66.80;;;;;;6280742;22;20446;-84
2022/03/05 01:49:10;;;;;;;18.10;10.97;;;0.40;67.00;;;;;;6281294;22;20022;-84
2022/03/05 01:51:36;;;;;;;18.20;11.23;;;0.40;66.80;;;;;;6307932;22;20101;-83
2022/03/05 01:54:03;;;;;;;15.93;9.93;;;0.40;66.90;;;;;;6308727;22;20049;-84
2022/03/05 01:56:30;;;;;;;18.73;11.53;;;0.40;67.20;;;;;;6308884;22;20030;-83
2022/03/05 01:58:55;;;;;;;17.10;10.17;;;0.40;66.90;;;;;;6281110;22;20026;-84
2022/03/05 02:01:22;;;;;;;16.93;10.10;;;0.30;66.90;;;;;;6306909;22;20011;-84
2022/03/05 02:03:49;;;;;;;19.97;11.70;;;0.30;66.90;;;;;;6280757;22;20057;-84
2022/03/05 02:06:15;;;;;;;19.37;10.50;;;0.30;67.00;;;;;;6308349;22;20012;-84
2022/03/05 02:08:41;;;;;;;16.77;10.23;;;0.30;67.00;;;;;;6308446;22;20015;-84
2022/03/05 02:11:06;;;;;;;18.57;10.50;;;0.30;67.00;;;;;;6308183;22;20018;-84
2022/03/05 02:13:32;;;;;;;17.27;10.47;;;0.30;67.00;;;;;;6308028;22;20019;-83
2022/03/05 02:15:58;;;;;;;16.53;9.63;;;0.30;67.00;;;;;;6307687;22;20820;-83
2022/03/05 02:18:24;;;;;;;16.13;9.67;;;0.30;67.00;;;;;;6308509;22;20111;-83
2022/03/05 02:20:51;;;;;;;16.37;9.63;;;0.30;67.10;;;;;;6308277;22;20054;-84
2022/03/05 02:23:17;;;;;;;15.20;9.63;;;0.30;67.00;;;;;;6308699;22;20026;-84
2022/03/05 02:25:58;;;;;;;18.13;9.53;;;0.30;67.00;;;;;;6280090;22;20007;-84
2022/03/05 02:28:25;;;;;;;16.00;9.27;;;0.30;67.00;;;;;;6308308;22;20042;-84
2022/03/05 02:30:51;;;;;;;18.17;10.17;;;0.30;66.90;;;;;;6308186;22;20014;-84
2022/03/05 02:33:17;;;;;;;17.37;9.93;;;0.30;67.00;;;;;;6280430;22;20058;-83
2022/03/05 02:35:43;;;;;;;15.67;9.70;;;0.30;66.90;;;;;;6308083;22;20011;-83
2022/03/05 02:38:14;;;;;;;20.73;9.67;;;0.20;66.80;;;;;;6307914;22;20015;-84
2022/03/05 02:40:40;;;;;;;16.47;9.57;;;0.30;66.90;;;;;;6307830;22;20014;-84
2022/03/05 02:43:07;;;;;;;18.80;10.40;;;0.30;66.80;;;;;;6308563;22;20087;-84
2022/03/05 02:45:33;;;;;;;17.77;9.77;;;0.20;66.90;;;;;;6306182;22;20015;-84
2022/03/05 02:48:00;;;;;;;18.13;9.90;;;0.20;67.20;;;;;;6307654;22;20015;-84
2022/03/05 02:50:26;;;;;;;18.37;10.37;;;0.20;66.70;;;;;;6307952;22;20564;-84
2022/03/05 02:52:51;;;;;;;14.77;9.33;;;0.30;66.80;;;;;;6280732;22;20020;-84
2022/03/05 02:55:17;;;;;;;16.37;9.57;;;0.20;66.70;;;;;;6307982;22;20012;-83
2022/03/05 02:57:43;;;;;;;18.33;11.07;;;0.20;66.70;;;;;;6279805;22;20030;-84
2022/03/05 03:00:10;;;;;;;14.27;9.27;;;0.20;66.70;;;;;;6308060;22;20011;-83
2022/03/05 03:02:35;;;;;;;16.73;9.27;;;0.20;66.70;;;;;;6280171;22;20046;-84
2022/03/05 03:05:01;;;;;;;16.53;9.93;;;0.20;66.80;;;;;;6308315;22;20435;-83
2022/03/05 03:07:27;;;;;;;16.97;9.63;;;0.20;66.80;;;;;;6307220;22;20022;-83
2022/03/05 03:09:52;;;;;;;15.77;9.20;;;0.20;66.70;;;;;;6308314;22;20030;-83
2022/03/05 03:12:18;;;;;;;17.03;9.93;;;0.20;66.60;;;;;;6279781;22;20316;-83
2022/03/05 03:14:43;;;;;;;15.07;9.20;;;0.20;66.50;;;;;;6308225;22;20324;-83
2022/03/05 03:17:09;;;;;;;16.30;10.00;;;0.20;66.60;;;;;;6280295;22;20466;-83
2022/03/05 03:19:35;;;;;;;15.50;9.73;;;0.20;66.60;;;;;;6308286;22;20326;-83
2022/03/05 03:22:01;;;;;;;14.37;8.63;;;0.20;66.40;;;;;;6308420;22;20008;-83
2022/03/05 03:24:26;;;;;;;15.33;8.83;;;0.20;66.40;;;;;;6282602;22;20019;-83
2022/03/05 03:26:52;;;;;;;18.33;10.20;;;0.20;66.40;;;;;;6309379;22;20007;-83
2022/03/05 03:29:17;;;;;;;17.03;9.50;;;0.20;66.40;;;;;;6309933;22;20023;-83
2022/03/05 03:31:43;;;;;;;15.97;9.73;;;0.30;66.40;;;;;;6282117;22;20015;-84
2022/03/05 03:34:09;;;;;;;15.43;9.60;;;0.20;66.40;;;;;;6309722;22;20090;-83
2022/03/05 03:36:34;;;;;;;14.60;8.63;;;0.30;66.60;;;;;;6309815;22;20015;-83
2022/03/05 03:39:00;;;;;;;17.40;9.53;;;0.30;66.50;;;;;;6281949;22;20102;-83
2022/03/05 03:41:26;;;;;;;16.97;9.47;;;0.30;66.50;;;;;;6309288;22;20335;-84
2022/03/05 03:43:51;;;;;;;16.40;9.30;;;0.30;66.30;;;;;;6310391;22;20431;-84
2022/03/05 03:46:17;;;;;;;14.97;8.63;;;0.30;66.20;;;;;;6310033;22;20078;-83
2022/03/05 03:48:43;;;;;;;16.97;9.63;;;0.30;66.20;;;;;;6309569;22;20011;-83
2022/03/05 03:51:08;;;;;;;15.57;8.80;;;0.30;66.20;;;;;;6309828;22;20086;-82
2022/03/05 03:53:34;;;;;;;17.77;10.43;;;0.30;66.10;;;;;;6281434;22;20018;-83
2022/03/05 03:56:00;;;;;;;16.90;9.33;;;0.30;65.70;;;;;;6282452;22;20011;-83
2022/03/05 03:58:25;;;;;;;15.40;9.50;;;0.30;65.60;;;;;;6309054;22;20019;-83
2022/03/05 04:00:51;;;;;;;16.83;9.40;;;0.30;65.50;;;;;;6310139;22;20019;-83
2022/03/05 04:03:19;;;;;;;17.70;8.83;;;0.20;65.30;;;;;;6309111;22;20023;-83
2022/03/05 04:05:45;;;;;;;15.03;8.97;;;0.20;65.30;;;;;;6298018;22;20007;-81
2022/03/05 04:10:55;;;;;;;12.75;8.00;;;0.10;65.20;;;;;;6295251;22;20517;-84
2022/03/05 04:13:20;;;;;;;16.43;8.53;;;0.00;65.20;;;;;;6309644;22;20104;-84
2022/03/05 04:15:46;;;;;;;15.67;8.80;;;0.00;65.30;;;;;;6310223;22;20046;-85
2022/03/05 04:18:12;;;;;;;16.70;8.67;;;-0.10;65.30;;;;;;6309394;22;20323;-84
2022/03/05 04:20:38;;;;;;;16.13;9.03;;;-0.10;65.40;;;;;;6309915;22;20011;-84
2022/03/05 04:23:04;;;;;;;16.80;9.20;;;-0.10;65.50;;;;;;6281766;22;20508;-84
2022/03/05 04:25:30;;;;;;;16.83;9.87;;;-0.20;65.70;;;;;;6282231;22;20022;-84
2022/03/05 04:27:55;;;;;;;17.23;9.70;;;-0.20;65.80;;;;;;6309155;22;20094;-84
2022/03/05 04:30:21;;;;;;;16.47;8.87;;;-0.30;65.80;;;;;;6308680;22;20474;-84
2022/03/05 04:32:47;;;;;;;16.50;9.30;;;-0.30;65.90;;;;;;6308876;22;20382;-84
2022/03/05 04:35:13;;;;;;;15.67;8.67;;;-0.30;66.20;;;;;;6309406;22;20018;-84
2022/03/05 04:37:38;;;;;;;16.30;9.13;;;-0.40;66.40;;;;;;6280231;22;20094;-84
2022/03/05 04:40:05;;;;;;;15.33;9.53;;;-0.40;66.30;;;;;;6281533;22;20019;-84
2022/03/05 04:42:31;;;;;;;15.43;9.20;;;-0.40;66.40;;;;;;6308971;22;20050;-83
2022/03/05 04:44:57;;;;;;;19.00;10.13;;;-0.40;66.50;;;;;;6309346;22;20019;-84
2022/03/05 04:47:23;;;;;;;16.80;9.27;;;-0.40;66.50;;;;;;6308670;22;20046;-83
2022/03/05 04:49:48;;;;;;;16.57;8.77;;;-0.40;66.50;;;;;;6281249;22;20050;-84
2022/03/05 04:52:14;;;;;;;15.93;8.50;;;-0.40;66.60;;;;;;6281569;22;20019;-83
2022/03/05 04:54:40;;;;;;;14.80;8.53;;;-0.30;66.70;;;;;;6309022;22;20392;-84
2022/03/05 04:57:06;;;;;;;17.03;9.07;;;-0.40;66.60;;;;;;6281460;22;20024;-82
2022/03/05 04:59:32;;;;;;;13.87;7.90;;;-0.40;66.50;;;;;;6309292;22;20022;-84
2022/03/05 05:01:58;;;;;;;13.83;8.33;;;-0.30;66.40;;;;;;6309379;22;20007;-84
2022/03/05 05:04:24;;;;;;;17.00;9.07;;;-0.30;66.40;;;;;;6309179;22;20311;-84
2022/03/05 05:06:49;;;;;;;16.13;9.00;;;-0.30;66.50;;;;;;6309383;22;20011;-84
2022/03/05 05:09:15;;;;;;;16.90;9.00;;;-0.40;66.40;;;;;;6308843;22;20016;-84
2022/03/05 05:11:42;;;;;;;15.40;8.23;;;-0.30;66.60;;;;;;6308634;22;20435;-84
2022/03/05 05:14:08;;;;;;;15.70;8.80;;;-0.30;66.70;;;;;;6308437;22;20472;-84
2022/03/05 05:16:34;;;;;;;15.23;8.97;;;-0.30;66.80;;;;;;6309027;22;20016;-84
2022/03/05 05:21:43;;;;;;;14.68;8.57;;;-0.20;66.80;;;;;;6308987;22;20038;-84
2022/03/05 05:24:09;;;;;;;14.80;8.30;;;-0.20;66.80;;;;;;6280854;22;20439;-84
2022/03/05 05:26:35;;;;;;;14.80;8.70;;;-0.20;66.90;;;;;;6308864;22;20018;-84
2022/03/05 05:29:00;;;;;;;16.80;9.40;;;-0.20;66.90;;;;;;6308160;22;20018;-84
2022/03/05 05:31:26;;;;;;;16.70;8.80;;;-0.10;66.70;;;;;;6309148;22;20050;-83
2022/03/05 05:33:52;;;;;;;15.00;8.13;;;-0.10;66.60;;;;;;6308685;22;20019;-84
2022/03/05 05:36:18;;;;;;;15.93;8.77;;;-0.10;66.40;;;;;;6308343;22;20014;-84
2022/03/05 05:38:44;;;;;;;13.83;8.00;;;-0.10;66.30;;;;;;6280502;22;20097;-84
2022/03/05 05:41:12;;;;;;;15.07;8.23;;;-0.10;66.30;;;;;;6308542;22;20042;-84
2022/03/05 05:43:38;;;;;;;18.00;9.53;;;-0.10;66.40;;;;;;6308322;22;20069;-84
2022/03/05 05:46:03;;;;;;;18.37;10.10;;;-0.10;66.30;;;;;;6280994;22;20011;-84
2022/03/05 05:48:29;;;;;;;18.30;9.67;;;-0.10;66.00;;;;;;6280960;22;20370;-84
2022/03/05 05:50:55;;;;;;;18.80;9.57;;;-0.10;65.70;;;;;;6281162;22;20342;-84
2022/03/05 05:53:21;;;;;;;16.63;8.53;;;-0.10;65.50;;;;;;6308750;22;20034;-84
2022/03/05 05:55:46;;;;;;;20.50;9.83;;;-0.20;65.40;;;;;;6308939;22;20090;-84
2022/03/05 05:58:12;;;;;;;18.70;10.10;;;-0.20;65.50;;;;;;6308239;22;20015;-83
2022/03/05 06:00:37;;;;;;;20.47;10.43;;;-0.30;65.60;;;;;;6308915;22;20011;-84
2022/03/05 06:03:03;;;;;;;17.80;8.83;;;-0.30;65.80;;;;;;6255370;22;20023;-84
2022/03/05 06:05:28;;;;;;;17.97;9.50;;;-0.30;65.80;;;;;;6308539;22;20057;-84
2022/03/05 06:07:56;;;;;;;18.67;8.80;;;-0.40;65.80;;;;;;6308221;22;20027;-84
2022/03/05 06:10:22;;;;;;;19.53;10.60;;;-0.40;66.10;;;;;;6308112;22;20481;-84
2022/03/05 06:12:49;;;;;;;17.93;9.57;;;-0.50;66.10;;;;;;6280918;22;20034;-82
2022/03/05 06:15:15;;;;;;;17.60;9.90;;;-0.50;66.10;;;;;;6308137;22;20019;-83
2022/03/05 06:17:42;;;;;;;17.43;9.73;;;-0.50;66.30;;;;;;6308238;22;20300;-84
2022/03/05 06:20:08;;;;;;;18.43;9.13;;;-0.50;66.40;;;;;;6280901;22;20331;-84
2022/03/05 06:22:34;;;;;;;16.17;8.90;;;-0.60;66.40;;;;;;6308691;22;20069;-83
2022/03/05 06:25:00;;;;;;;17.97;9.40;;;-0.60;66.40;;;;;;6280521;22;20373;-84
2022/03/05 06:27:25;;;;;;;17.90;9.60;;;-0.60;66.60;;;;;;6308468;22;20007;-83
2022/03/05 06:29:51;;;;;;;18.77;9.50;;;-0.60;66.50;;;;;;6279979;22;20435;-83
2022/03/05 06:32:17;;;;;;;20.03;10.73;;;-0.60;66.60;;;;;;6280930;22;20451;-84
2022/03/05 06:34:42;;;;;;;15.87;8.27;;;-0.60;66.70;;;;;;6307478;22;20027;-83
2022/03/05 06:37:08;;;;;;;19.47;10.67;;;-0.60;66.70;;;;;;6307712;22;20424;-83
2022/03/05 06:39:34;;;;;;;18.17;9.90;;;-0.60;66.70;;;;;;6308316;22;20026;-83
2022/03/05 06:42:00;;;;;;;19.30;9.73;;;-0.60;66.80;;;;;;6280311;22;20026;-83
2022/03/05 06:44:26;;;;;;;18.37;9.80;;;-0.60;66.80;;;;;;6308121;22;20057;-83
2022/03/05 06:46:51;;;;;;;17.23;9.03;;;-0.60;66.90;;;;;;6308602;22;20011;-83
2022/03/05 06:49:17;;;;;;;17.17;9.27;;;-0.60;66.90;;;;;;6307932;22;20419;-83
2022/03/05 06:51:43;;;;;;;17.03;9.07;;;-0.60;67.00;;;;;;6308391;22;20015;-84
2022/03/05 06:54:09;;;;;;;22.33;10.00;;;-0.60;67.00;;;;;;6308116;22;20054;-83
2022/03/05 06:56:34;;;;;;;17.00;8.70;;;-0.60;67.00;;;;;;6307806;22;20060;-84
2022/03/05 06:59:00;;;;;;;16.93;9.00;;;-0.60;67.00;;;;;;6282829;22;20054;-83
2022/03/05 07:01:26;;;;;;;17.30;9.07;;;-0.60;67.00;;;;;;6310452;22;20438;-83
2022/03/05 07:03:51;;;;;;;17.10;9.00;;;-0.50;67.30;;;;;;6282776;22;20473;-83
2022/03/05 07:06:17;;;;;;;17.33;8.63;;;-0.60;67.10;;;;;;6282739;22;20485;-83
2022/03/05 07:08:42;;;;;;;20.03;9.33;;;-0.60;67.20;;;;;;6310230;22;20015;-83
2022/03/05 07:11:08;;;;;;;15.10;8.30;;;-0.50;67.40;;;;;;6309805;22;20011;-84
2022/03/05 07:13:34;;;;;;;17.70;9.00;;;-0.50;67.50;;;;;;6282583;22;20019;-83
2022/03/05 07:16:00;;;;;;;16.70;9.17;;;-0.50;67.50;;;;;;6282652;22;20015;-83
2022/03/05 07:18:25;;;;;;;17.87;9.10;;;-0.50;67.60;;;;;;6281802;22;20324;-83
2022/03/05 07:20:51;;;;;;;16.37;8.90;;;-0.50;67.60;;;;;;6309529;22;20018;-83
2022/03/05 07:23:17;;;;;;;16.97;8.40;;;-0.50;67.70;;;;;;6282449;22;20023;-84
2022/03/05 07:25:43;;;;;;;16.17;8.73;;;-0.40;67.90;;;;;;6310019;22;20091;-83
2022/03/05 07:28:10;;;;;;;16.50;9.13;;;-0.40;67.80;;;;;;6310076;22;20058;-83
2022/03/05 07:30:37;;;;;;;14.90;8.23;;;-0.40;67.80;;;;;;6309417;22;20110;-83
2022/03/05 07:33:04;;;;;;;15.60;7.90;;;-0.30;67.90;;;;;;6310304;22;20324;-84
2022/03/05 07:35:29;;;;;;;16.80;9.10;;;-0.30;67.90;;;;;;6310143;22;20030;-84
2022/03/05 07:37:55;;;;;;;15.60;8.70;;;-0.20;67.80;;;;;;6309843;22;20019;-83
2022/03/05 07:40:21;;;;;;;13.97;7.83;;;-0.20;67.80;;;;;;6309489;22;20015;-84
2022/03/05 07:42:46;;;;;;;13.53;9.03;;;-0.10;67.70;;;;;;6310137;22;20053;-84
2022/03/05 07:45:12;;;;;;;15.33;8.67;;;-0.10;67.70;;;;;;6310022;22;20015;-84
2022/03/05 07:47:38;;;;;;;13.37;7.63;;;0.00;67.60;;;;;;6282140;22;20026;-84
2022/03/05 07:50:04;;;;;;;15.50;8.10;;;0.10;67.70;;;;;;6282041;22;20022;-86
2022/03/05 07:52:30;;;;;;;18.03;9.20;;;0.10;67.60;;;;;;6309715;22;20128;-87
2022/03/05 07:54:56;;;;;;;16.17;9.17;;;0.20;67.70;;;;;;6281278;22;20015;-84
2022/03/05 07:57:22;;;;;;;14.20;8.13;;;0.30;67.70;;;;;;6282392;22;20011;-85
2022/03/05 07:59:47;;;;;;;15.93;8.70;;;0.30;67.60;;;;;;6309509;22;20496;-86
2022/03/05 08:02:15;;;;;;;15.27;7.93;;;0.40;67.60;;;;;;6309996;22;20019;-86
2022/03/05 08:04:43;;;;;;;16.93;8.27;;;0.50;67.50;;;;;;6310309;22;20022;-85
2022/03/05 08:07:09;;;;;;;15.40;9.07;;;0.50;67.40;;;;;;6282504;22;20057;-85
2022/03/05 08:09:38;;;;;;;14.00;8.30;;;0.60;67.40;;;;;;6309481;22;20057;-83
2022/03/05 08:12:04;;;;;;;17.03;8.87;;;0.70;67.50;;;;;;6281027;22;20016;-85
2022/03/05 08:14:30;;;;;;;17.70;9.27;;;0.80;67.60;;;;;;6314024;22;20374;-84
2022/03/05 08:16:56;;;;;;;16.67;9.27;;;0.90;68.00;;;;;;6319592;22;20015;-84
2022/03/05 08:19:21;;;;;;;18.93;9.90;;;1.00;67.50;;;;;;6328008;22;20011;-84
2022/03/05 08:21:47;;;;;;;17.60;10.00;;;1.10;67.40;;;;;;6283508;22;20019;-84
2022/03/05 08:24:13;;;;;;;14.60;8.67;;;1.30;67.20;;;;;;6282360;22;20129;-83
2022/03/05 08:26:38;;;;;;;15.70;9.00;;;1.40;67.30;;;;;;6256567;22;20026;-84
2022/03/05 08:29:04;;;;;;;16.17;10.23;;;1.60;67.10;;;;;;6281964;22;20065;-84
2022/03/05 08:31:33;;;;;;;15.53;9.53;;;1.80;67.00;;;;;;6281926;22;20403;-84
2022/03/05 08:34:01;;;;;;;16.37;9.17;;;1.90;66.70;;;;;;6281798;22;20015;-84
2022/03/05 08:36:27;;;;;;;15.00;9.70;;;2.10;66.60;;;;;;6281611;22;20039;-84
2022/03/05 08:38:53;;;;;;;18.10;11.03;;;2.30;66.20;;;;;;6282384;22;20019;-84
2022/03/05 08:41:19;;;;;;;16.00;9.90;;;2.50;65.20;;;;;;6281750;22;20099;-84
2022/03/05 08:43:44;;;;;;;18.40;10.60;;;2.70;65.00;;;;;;6309228;22;20022;-83
2022/03/05 08:46:10;;;;;;;18.10;10.47;;;2.80;64.50;;;;;;6308633;22;20019;-84
2022/03/05 08:48:36;;;;;;;16.67;10.93;;;3.00;63.90;;;;;;6309581;22;20030;-84
2022/03/05 08:51:03;;;;;;;21.40;11.37;;;3.50;64.00;;;;;;6281500;22;20015;-83
2022/03/05 08:53:28;;;;;;;17.33;10.50;;;3.20;63.40;;;;;;6309180;22;20019;-85
2022/03/05 08:55:54;;;;;;;20.73;11.63;;;3.30;62.40;;;;;;6308162;22;20019;-84
2022/03/05 08:58:20;;;;;;;18.20;11.43;;;3.30;61.50;;;;;;6282686;22;20058;-84
2022/03/05 09:00:47;;;;;;;21.53;12.07;;;3.30;61.70;;;;;;6281615;22;20015;-86
2022/03/05 09:03:13;;;;;;;22.08;12.40;;;3.30;61.60;;;;;;6309192;22;20038;-85
2022/03/05 09:05:39;;;;;;;20.10;12.00;;;3.30;61.50;;;;;;6280953;22;20446;-83
2022/03/05 09:08:05;;;;;;;19.10;11.63;;;3.30;61.60;;;;;;6309353;22;20019;-84
2022/03/05 09:10:30;;;;;;;24.30;12.15;;;3.50;62.10;;;;;;6280415;22;20019;-85
2022/03/05 09:12:56;;;;;;;21.55;12.73;;;3.40;61.50;;;;;;6276174;22;20030;-84
2022/03/05 09:15:22;;;;;;;19.85;12.70;;;3.40;60.60;;;;;;6276471;22;20023;-84
2022/03/05 09:17:47;;;;;;;23.38;12.98;;;3.40;60.80;;;;;;6276458;22;20016;-85
2022/03/05 09:20:14;;;;;;;22.17;12.45;;;3.30;61.00;;;;;;6277594;22;20027;-86
2022/03/05 09:22:40;;;;;;;25.33;13.15;;;3.30;60.90;;;;;;6250801;22;20015;-87
2022/03/05 09:25:06;;;;;;;27.98;13.68;;;3.30;61.30;;;;;;6276404;22;20332;-86
2022/03/05 09:27:33;;;;;;;27.52;14.65;;;3.40;61.50;;;;;;6278378;22;20023;-87
2022/03/05 09:29:59;;;;;;;25.13;13.15;;;3.50;61.30;;;;;;6276451;22;20020;-85
2022/03/05 09:32:25;;;;;;;24.25;14.60;;;3.60;60.60;;;;;;6277429;22;20057;-85
2022/03/05 09:34:51;;;;;;;25.73;13.60;;;3.60;60.20;;;;;;6277851;22;20065;-85
2022/03/05 09:37:17;;;;;;;25.75;14.23;;;3.60;60.10;;;;;;6278356;22;20035;-86
2022/03/05 09:39:42;;;;;;;24.35;14.57;;;3.70;60.00;;;;;;6277860;22;20042;-86
2022/03/05 09:42:08;;;;;;;29.30;15.27;;;3.60;60.30;;;;;;6276265;22;20018;-85
2022/03/05 09:44:35;;;;;;;28.33;16.27;;;3.80;60.10;;;;;;6276541;22;20059;-85
2022/03/05 09:47:02;;;;;;;22.08;14.50;;;3.80;60.10;;;;;;6278445;22;20340;-88
2022/03/05 09:49:28;;;;;;;25.75;13.52;;;3.70;60.40;;;;;;6280788;22;20051;-86
2022/03/05 09:51:54;;;;;;;26.63;14.68;;;3.80;60.30;;;;;;6251014;22;20016;-86
2022/03/05 09:54:20;;;;;;;25.10;13.98;;;3.90;60.40;;;;;;6277583;22;20038;-86
2022/03/05 09:56:46;;;;;;;25.30;14.88;;;4.00;60.30;;;;;;6277031;22;20015;-86
2022/03/05 09:59:13;;;;;;;26.58;15.00;;;4.00;60.10;;;;;;6276274;22;20065;-86
2022/03/05 10:01:39;;;;;;;24.40;14.23;;;4.10;60.10;;;;;;6250390;22;20027;-86
2022/03/05 10:04:17;;;;;;;25.75;15.45;;;4.30;59.90;;;;;;6279978;22;20320;-87
2022/03/05 10:06:43;;;;;;;22.75;14.00;;;4.30;59.70;;;;;;6278737;22;20023;-85
2022/03/05 10:09:21;;;;;;;25.63;14.25;;;4.40;59.00;;;;;;6277709;22;20011;-85
2022/03/05 10:11:47;;;;;;;23.85;14.45;;;4.40;58.70;;;;;;6276788;22;20057;-85
2022/03/05 10:14:17;;;;;;;26.63;15.80;;;4.30;58.80;;;;;;6275905;22;20020;-85
2022/03/05 10:16:43;;;;;;;25.95;15.05;;;4.40;59.20;;;;;;6277942;22;20011;-85
2022/03/05 10:19:21;;;;;;;28.50;15.30;;;4.40;58.90;;;;;;6275743;22;20023;-85
2022/03/05 10:22:00;;;;;;;26.27;15.40;;;4.40;58.90;;;;;;6276652;22;20016;-85
2022/03/05 10:24:33;;;;;;;27.88;14.60;;;4.50;59.00;;;;;;6276029;22;20050;-85
2022/03/05 10:26:59;;;;;;;23.42;14.73;;;4.60;58.80;;;;;;6275994;22;20015;-85
2022/03/05 10:29:29;;;;;;;24.77;13.98;;;4.70;59.10;;;;;;6275040;22;20047;-86
2022/03/05 10:32:15;;;;;;;25.05;15.07;;;4.70;59.00;;;;;;6277259;22;20046;-86
2022/03/05 10:34:49;;;;;;;26.85;14.10;;;4.80;58.50;;;;;;6279339;22;20061;-85
2022/03/05 10:37:15;;;;;;;24.70;14.40;;;4.90;58.90;;;;;;6252494;22;20024;-85
2022/03/05 10:39:41;;;;;;;34.55;16.58;;;5.00;58.60;;;;;;6279988;22;20016;-86
2022/03/05 10:42:21;;;;;;;26.55;14.43;;;5.00;58.20;;;;;;6278284;22;20091;-85
2022/03/05 10:45:04;;;;;;;28.13;15.00;;;5.00;58.10;;;;;;6277227;22;20011;-86
2022/03/05 10:47:43;;;;;;;25.77;15.20;;;5.10;58.70;;;;;;6276221;22;20023;-85
2022/03/05 10:50:14;;;;;;;26.05;15.77;;;5.10;58.90;;;;;;6279714;22;20020;-85
2022/03/05 10:52:51;;;;;;;26.05;14.23;;;5.20;58.40;;;;;;6251188;22;20039;-86
2022/03/05 10:55:23;;;;;;;24.25;14.48;;;5.30;58.30;;;;;;6279147;22;20016;-85
2022/03/05 10:58:13;;;;;;;29.35;15.50;;;5.40;58.40;;;;;;6279054;22;20016;-86
2022/03/05 11:00:40;;;;;;;25.52;14.43;;;5.40;58.10;;;;;;6249510;22;20020;-84
2022/03/05 11:03:07;;;;;;;25.98;14.23;;;5.40;58.20;;;;;;6277574;22;20023;-85
2022/03/05 11:05:35;;;;;;;26.67;14.98;;;5.50;58.20;;;;;;6278116;22;20020;-85
2022/03/05 11:08:01;;;;;;;25.52;14.35;;;5.60;57.70;;;;;;6281387;22;20027;-85
2022/03/05 11:10:29;;;;;;;25.67;14.63;;;5.80;57.80;;;;;;6279006;22;20331;-84
2022/03/05 11:12:59;;;;;;;28.83;16.38;;;5.60;57.40;;;;;;6274108;22;20070;-84
2022/03/05 11:15:26;;;;;;;25.77;15.13;;;5.70;57.50;;;;;;6275060;22;20027;-85
2022/03/05 11:17:53;;;;;;;25.38;14.95;;;5.70;57.30;;;;;;6275135;22;20051;-84
2022/03/05 11:20:19;;;;;;;33.25;16.08;;;5.70;57.00;;;;;;6274025;22;20523;-83
2022/03/05 11:22:49;;;;;;;26.73;16.83;;;5.70;56.80;;;;;;6274615;22;20059;-84
2022/03/05 11:25:18;;;;;;;25.95;14.48;;;5.70;57.00;;;;;;6272972;22;20026;-84
2022/03/05 11:28:03;;;;;;;27.63;16.67;;;5.70;57.40;;;;;;6274492;22;20042;-85
2022/03/05 11:30:39;;;;;;;27.08;15.85;;;5.90;57.10;;;;;;6275220;22;20019;-85
2022/03/05 11:33:13;;;;;;;25.95;15.82;;;5.90;56.90;;;;;;6276000;22;20012;-84
2022/03/05 11:35:43;;;;;;;27.87;15.90;;;5.90;56.90;;;;;;6277062;22;20019;-83
2022/03/05 11:38:36;;;;;;;26.77;16.63;;;5.90;56.70;;;;;;6275378;22;20039;-83
2022/03/05 11:41:22;;;;;;;31.80;16.83;;;5.90;56.60;;;;;;6276574;22;20018;-83
2022/03/05 11:43:48;;;;;;;28.67;16.95;;;5.90;56.90;;;;;;6276504;22;20054;-84
2022/03/05 11:46:27;;;;;;;27.88;16.08;;;6.00;56.50;;;;;;6277215;22;20495;-83
2022/03/05 11:49:11;;;;;;;23.85;14.05;;;6.00;57.00;;;;;;6252023;22;20070;-83
2022/03/05 11:51:56;;;;;;;26.35;15.38;;;6.00;56.50;;;;;;6278345;22;20099;-83
2022/03/05 11:54:24;;;;;;;28.60;16.27;;;6.00;56.60;;;;;;6277479;22;20016;-83
2022/03/05 11:57:08;;;;;;;25.35;14.98;;;6.50;56.60;;;;;;6276847;22;20016;-83
2022/03/05 11:59:39;;;;;;;28.95;16.75;;;6.00;56.10;;;;;;6277317;22;20020;-84
2022/03/05 12:02:06;;;;;;;28.13;15.40;;;6.10;56.10;;;;;;6278526;22;20023;-83
2022/03/05 12:04:33;;;;;;;24.83;15.65;;;6.40;56.20;;;;;;6277132;22;20094;-83
2022/03/05 12:07:04;;;;;;;23.52;14.23;;;6.10;56.20;;;;;;6279027;22;20011;-87
2022/03/05 12:09:44;;;;;;;26.67;15.65;;;6.20;55.90;;;;;;6277172;22;20456;-83
2022/03/05 12:12:17;;;;;;;25.92;14.55;;;6.20;56.00;;;;;;6276841;22;20511;-84
2022/03/05 12:15:01;;;;;;;24.10;14.13;;;6.50;56.20;;;;;;6276789;22;20020;-83
2022/03/05 12:17:33;;;;;;;25.70;14.68;;;6.30;56.00;;;;;;6252082;22;20015;-82
2022/03/05 12:19:59;;;;;;;23.92;14.80;;;6.40;55.90;;;;;;6277976;22;20026;-84
2022/03/05 12:22:25;;;;;;;25.02;14.85;;;6.30;55.20;;;;;;6290172;22;20020;-83
2022/03/05 12:24:50;;;;;;;28.10;15.30;;;6.50;55.60;;;;;;6293291;22;20006;-84
2022/03/05 12:27:18;;;;;;;26.40;15.20;;;6.30;55.30;;;;;;6288039;22;20095;-84
2022/03/05 12:29:52;;;;;;;28.10;16.08;;;6.40;55.00;;;;;;6281509;22;20064;-84
2022/03/05 12:32:19;;;;;;;25.50;14.80;;;6.30;54.90;;;;;;6278060;22;20046;-85
2022/03/05 12:34:45;;;;;;;24.15;14.38;;;6.30;54.90;;;;;;6278519;22;20054;-85
2022/03/05 12:37:11;;;;;;;26.95;15.30;;;6.50;55.20;;;;;;6279503;22;20026;-84
2022/03/05 12:39:44;;;;;;;24.23;15.70;;;6.30;54.90;;;;;;6277719;22;20095;-84
2022/03/05 12:42:10;;;;;;;26.58;16.30;;;6.30;55.20;;;;;;6288540;22;20016;-86
2022/03/05 12:44:37;;;;;;;26.70;15.35;;;6.30;55.00;;;;;;6297987;22;20016;-85